ADDS METAR Data INFO
IDs: Format: Raw Decoded Include TAF

Data at: 2157 UTC 24 Feb 2018

PFYU 242156Z 28004KT 10SM CLR M17/M21 A2958 RMK AO2 SLP046 T11721206 $
PFYU 242056Z 00000KT 10SM CLR M19/M21 A2958 RMK AO2 SNE1957 SLP047 6//// T11891206 56007 $
PFYU 242013Z 00000KT 10SM FEW001 M20/M22 A2958 RMK AO2 SNE1957 $
PFYU 241956Z 00000KT 10SM -SN CLR M21/M22 A2958 RMK AO2 SNB53 SLP047 T12061222 $
PFYU 241930Z 00000KT 10SM FEW003 M23/M25 A2958 RMK AO2 $
PFYU 241856Z 00000KT 10SM CLR M24/M26 A2959 RMK AO2 SLP050 T12441261 $
PFYU 241803Z 00000KT 10SM CLR M28/M31 A2959 RMK AO2 $
PFYU 241756Z 00000KT 1 1/4SM BR CLR M28/M30 A2960 RMK AO2 SLP053 6//// T12781300 11211 21283 $
PFYU 241752Z 00000KT 1 1/2SM HZ CLR M28/M31 A2960 RMK AO2 $
PFYU 241656Z 00000KT 9SM CLR M27/M29 A2960 RMK AO2 SLP053 T12671294 $
PFYU 241456Z AUTO 00000KT 8SM CLR M26/M28 RMK AO2 SLPNO T12561278 FZRANO $
PFYU 241356Z AUTO 00000KT 6SM HZ CLR M25/M28 RMK AO2 SLPNO T12501278 FZRANO $
PFYU 241256Z AUTO 00000KT 9SM CLR M23/M26 RMK AO2 SLPNO T12331256 FZRANO $
PFYU 241156Z AUTO 00000KT 10SM CLR M21/M23 RMK AO2 SLPNO T12111233 11156 21211 FZRANO $
PFYU 241056Z AUTO 00000KT 10SM CLR M21/M22 RMK AO2 SLPNO T12061217 FZRANO $
PFYU 240956Z AUTO 00000KT 10SM CLR M18/M20 RMK AO2 SLPNO T11831200 FZRANO $
PFYU 240856Z AUTO 23003KT 10SM CLR M17/M19 RMK AO2 SLPNO T11721189 410501172 FZRANO $
PFYU 240756Z AUTO 23005KT 10SM CLR M16/M18 RMK AO2 SLPNO T11561178 FZRANO $
PFYU 240656Z AUTO VRB05KT 10SM CLR M16/M17 RMK AO2 SLPNO T11561172 FZRANO $
PFYU 240556Z AUTO 00000KT 10SM CLR M16/M18 RMK AO2 SLPNO 60000 T11561178 11083 21156 FZRANO $
PFYU 240456Z AUTO 26010KT 10SM CLR M13/M16 RMK AO2 SLPNO T11281161 FZRANO $
PFYU 240356Z 26013G20KT 10SM OVC050 M12/M15 A2989 RMK AO2 SLP150 T11171150 $
PFYU 240256Z 24007KT 10SM FEW050 M12/M15 A2993 RMK AO2 SLP163 60000 T11171150 57007 $
PFYU 240216Z 25010KT 10SM SCT023 M11/M15 A2993 RMK AO2 $
PFYU 240205Z 25011G17KT 10SM BKN023 M11/M14 A2993 RMK AO2 $
PFYU 240156Z 26012G17KT 10SM SCT023 M11/M14 A2994 RMK AO2 SLP169 T11061144 $
PFYU 240140Z 25013G18KT 10SM SCT023 M11/M14 A2994 RMK AO2 $
PFYU 240056Z 26010G21KT 10SM OVC023 M09/M13 A2994 RMK AO2 SNE51 SLP168 P0000 T10891133 $
PFYU 232356Z 25011G20KT 3SM -SN BLSN SCT015 OVC023 M09/M12 A2995 RMK AO2 SNB07 SLP171 P0000 60000 T10891122 11078 21089 54000 $
PFYU 232354Z 26014G20KT 3SM -SN BLSN BKN015 OVC023 M09/M12 A2995 RMK AO2 SNB07 P0000 $
PFYU 232322Z 26012G20KT 1 3/4SM -SN BKN022 OVC065 M09/M12 A2995 RMK AO2 SNB07 P0000 $
PFYU 232317Z 26014G19KT 3SM -SN BKN022 OVC065 M09/M13 A2995 RMK AO2 SNB07 P0000 $
PFYU 232306Z 26014G21KT 10SM SCT022 OVC065 M09/M13 A2996 RMK AO2 $
PFYU 232256Z 26016G21KT 10SM BKN022 OVC070 M08/M13 A2995 RMK AO2 SNB28E38 SLP170 P0000 T10831128 $
PFYU 232220Z 25012G19KT 10SM BKN022 M09/M13 A2995 RMK AO2 $
PFYU 232156Z 25013G19KT 10SM SCT022 M09/M13 A2995 RMK AO2 SNB35E47 SLP170 P0000 T10891128 $
PFYU 232056Z 25014G23KT 10SM CLR M08/M13 A2993 RMK AO2 SLP163 T10831128 51020 $
PFYU 231956Z 25012G20KT 10SM CLR M09/M12 A2993 RMK AO2 PRESRR SLP163 T10891122 $
PFYU 231856Z 25014G19KT 10SM CLR M09/M12 A2989 RMK AO2 SLP152 T10891122 $
PFYU 231756Z 25011G20KT 10SM SCT120 M09/M12 A2987 RMK AO2 SLP145 60000 T10891122 11061 21089 $
PFYU 231656Z 25012G19KT 10SM CLR M09/M12 A2985 RMK AO2 SLP138 T10891117 $
PFYU 231641Z 25014G23KT 10SM CLR M08/M12 A2985 RMK AO2 PRESFR $
PFYU 231556Z 25013G19KT 10SM FEW120 M08/M11 A2982 RMK AO2 SLP127 T10781111 $
PFYU 231510Z 26012G20KT 10SM CLR M08/M11 A2980 RMK AO2 $
PFYU 231456Z AUTO 25014G20KT 10SM CLR M08/M11 RMK AO2 SLPNO 60000 T10781106 FZRANO $
PFYU 231356Z AUTO 25013G20KT 10SM FEW016 M07/M10 RMK AO2 SNE01 SLPNO P0000 T10721100 FZRANO $
PFYU 231338Z AUTO 25011G18KT 10SM SCT016 M07/M09 RMK AO2 SNE01 P0000 FZRANO $
PFYU 231256Z AUTO 25012G19KT 9SM -SN OVC014 M07/M08 RMK AO2 SLPNO P0000 T10671083 FZRANO $
PFYU 231231Z AUTO 25014G21KT 3SM -SN BR BKN014 OVC026 M06/M08 RMK AO2 P0000 FZRANO $
PFYU 231204Z AUTO 25011G18KT 2SM -SN BR BKN016 OVC022 M06/M08 RMK AO2 P0000 FZRANO $
PFYU 231156Z AUTO 24013G21KT 3SM -SN BR BKN016 OVC030 M06/M08 RMK AO2 SNB23 SLPNO P0000 60000 70003 T10561078 11017 21056 FZRANO $
PFYU 231056Z AUTO 25012G22KT 10SM OVC016 M05/M08 RMK AO2 SNE50 SLPNO P0000 T10501078 FZRANO $